sensor_id;sensor_type;location;lat;lon;timestamp;temperature;humidity
16974;DHT22;8603;46.944;7.412;2023-04-03T00:00:22;6.30;99.90
16974;DHT22;8603;46.944;7.412;2023-04-03T00:02:48;6.20;99.90
16974;DHT22;8603;46.944;7.412;2023-04-03T00:05:19;6.20;99.90
16974;DHT22;8603;46.944;7.412;2023-04-03T00:07:45;6.30;99.90
16974;DHT22;8603;46.944;7.412;2023-04-03T00:10:12;6.20;99.90
16974;DHT22;8603;46.944;7.412;2023-04-03T00:12:40;6.20;99.90
16974;DHT22;8603;46.944;7.412;2023-04-03T00:15:06;6.20;99.90
16974;DHT22;8603;46.944;7.412;2023-04-03T00:17:32;6.10;99.90
16974;DHT22;8603;46.944;7.412;2023-04-03T00:20:04;6.10;99.90
16974;DHT22;8603;46.944;7.412;2023-04-03T00:22:31;6.10;99.90
16974;DHT22;8603;46.944;7.412;2023-04-03T00:25:12;6.10;99.90
16974;DHT22;8603;46.944;7.412;2023-04-03T00:27:46;6.10;99.90
16974;DHT22;8603;46.944;7.412;2023-04-03T00:30:32;6.10;99.90
16974;DHT22;8603;46.944;7.412;2023-04-03T00:33:10;6.10;99.90
16974;DHT22;8603;46.944;7.412;2023-04-03T00:35:50;6.10;99.90
16974;DHT22;8603;46.944;7.412;2023-04-03T00:38:18;6.10;99.90
16974;DHT22;8603;46.944;7.412;2023-04-03T00:40:48;6.00;99.90
16974;DHT22;8603;46.944;7.412;2023-04-03T00:43:23;6.10;99.90
16974;DHT22;8603;46.944;7.412;2023-04-03T00:45:59;6.10;99.90
16974;DHT22;8603;46.944;7.412;2023-04-03T00:48:34;6.10;99.90
16974;DHT22;8603;46.944;7.412;2023-04-03T00:54:43;6.00;99.90
16974;DHT22;8603;46.944;7.412;2023-04-03T00:57:15;6.10;99.90
16974;DHT22;8603;46.944;7.412;2023-04-03T01:00:03;6.10;99.90
16974;DHT22;8603;46.944;7.412;2023-04-03T01:02:36;6.10;99.90
16974;DHT22;8603;46.944;7.412;2023-04-03T01:05:30;6.20;99.90
16974;DHT22;8603;46.944;7.412;2023-04-03T01:08:10;6.10;99.90
16974;DHT22;8603;46.944;7.412;2023-04-03T01:10:49;6.20;99.90
16974;DHT22;8603;46.944;7.412;2023-04-03T01:16:13;6.20;99.90
16974;DHT22;8603;46.944;7.412;2023-04-03T01:19:01;6.20;99.90
16974;DHT22;8603;46.944;7.412;2023-04-03T01:34:02;6.30;99.90
16974;DHT22;8603;46.944;7.412;2023-04-03T01:36:29;6.30;99.90
16974;DHT22;8603;46.944;7.412;2023-04-03T01:39:06;6.40;99.90
16974;DHT22;8603;46.944;7.412;2023-04-03T01:41:32;6.50;99.90
16974;DHT22;8603;46.944;7.412;2023-04-03T01:43:57;6.50;99.90
16974;DHT22;8603;46.944;7.412;2023-04-03T01:46:23;6.50;99.90
16974;DHT22;8603;46.944;7.412;2023-04-03T01:48:49;6.60;99.90
16974;DHT22;8603;46.944;7.412;2023-04-03T01:51:15;6.60;99.90
16974;DHT22;8603;46.944;7.412;2023-04-03T01:53:41;6.60;99.90
16974;DHT22;8603;46.944;7.412;2023-04-03T01:56:07;6.60;99.90
16974;DHT22;8603;46.944;7.412;2023-04-03T01:58:32;6.50;99.90
16974;DHT22;8603;46.944;7.412;2023-04-03T02:00:58;6.50;99.90
16974;DHT22;8603;46.944;7.412;2023-04-03T02:03:24;6.60;99.90
16974;DHT22;8603;46.944;7.412;2023-04-03T02:05:50;6.60;99.90
16974;DHT22;8603;46.944;7.412;2023-04-03T02:08:16;6.60;99.90
16974;DHT22;8603;46.944;7.412;2023-04-03T02:10:47;6.70;99.90
16974;DHT22;8603;46.944;7.412;2023-04-03T02:13:13;6.60;99.90
16974;DHT22;8603;46.944;7.412;2023-04-03T02:15:39;6.60;99.90
16974;DHT22;8603;46.944;7.412;2023-04-03T02:18:05;6.70;99.90
16974;DHT22;8603;46.944;7.412;2023-04-03T02:20:30;6.80;99.90
16974;DHT22;8603;46.944;7.412;2023-04-03T02:22:56;6.70;99.90
16974;DHT22;8603;46.944;7.412;2023-04-03T02:25:22;6.70;99.90
16974;DHT22;8603;46.944;7.412;2023-04-03T02:27:47;6.80;99.90
16974;DHT22;8603;46.944;7.412;2023-04-03T02:30:13;6.70;99.90
16974;DHT22;8603;46.944;7.412;2023-04-03T02:32:41;6.70;99.90
16974;DHT22;8603;46.944;7.412;2023-04-03T02:35:08;6.70;99.90
16974;DHT22;8603;46.944;7.412;2023-04-03T02:37:36;6.70;99.90
16974;DHT22;8603;46.944;7.412;2023-04-03T02:40:01;6.90;99.90
16974;DHT22;8603;46.944;7.412;2023-04-03T02:42:27;6.80;99.90
16974;DHT22;8603;46.944;7.412;2023-04-03T02:44:53;6.80;99.90
16974;DHT22;8603;46.944;7.412;2023-04-03T02:47:18;6.80;99.90
16974;DHT22;8603;46.944;7.412;2023-04-03T02:49:44;6.70;99.90
16974;DHT22;8603;46.944;7.412;2023-04-03T02:52:11;6.70;99.90
16974;DHT22;8603;46.944;7.412;2023-04-03T02:54:37;6.70;99.90
16974;DHT22;8603;46.944;7.412;2023-04-03T02:57:03;6.60;99.90
16974;DHT22;8603;46.944;7.412;2023-04-03T02:59:28;6.60;99.90
16974;DHT22;8603;46.944;7.412;2023-04-03T03:01:54;6.60;99.90
16974;DHT22;8603;46.944;7.412;2023-04-03T03:04:21;6.60;99.90
16974;DHT22;8603;46.944;7.412;2023-04-03T03:06:47;6.60;99.90
16974;DHT22;8603;46.944;7.412;2023-04-03T03:09:13;6.60;99.90
16974;DHT22;8603;46.944;7.412;2023-04-03T03:11:39;6.60;99.90
16974;DHT22;8603;46.944;7.412;2023-04-03T03:14:05;6.70;99.90
16974;DHT22;8603;46.944;7.412;2023-04-03T03:16:30;6.70;99.90
16974;DHT22;8603;46.944;7.412;2023-04-03T03:18:56;6.60;99.90
16974;DHT22;8603;46.944;7.412;2023-04-03T03:21:22;6.70;99.90
16974;DHT22;8603;46.944;7.412;2023-04-03T03:23:48;6.50;99.90
16974;DHT22;8603;46.944;7.412;2023-04-03T03:26:13;6.40;99.90
16974;DHT22;8603;46.944;7.412;2023-04-03T03:28:39;6.40;99.90
16974;DHT22;8603;46.944;7.412;2023-04-03T03:31:06;6.30;99.90
16974;DHT22;8603;46.944;7.412;2023-04-03T03:33:32;6.20;99.90
16974;DHT22;8603;46.944;7.412;2023-04-03T03:35:59;6.10;99.90
16974;DHT22;8603;46.944;7.412;2023-04-03T03:38:25;6.00;99.90
16974;DHT22;8603;46.944;7.412;2023-04-03T03:40:51;5.90;99.90
16974;DHT22;8603;46.944;7.412;2023-04-03T03:43:17;5.80;99.90
16974;DHT22;8603;46.944;7.412;2023-04-03T03:45:44;5.80;99.90
16974;DHT22;8603;46.944;7.412;2023-04-03T03:48:11;5.80;99.90
16974;DHT22;8603;46.944;7.412;2023-04-03T03:50:37;5.70;99.90
16974;DHT22;8603;46.944;7.412;2023-04-03T03:53:03;5.70;99.90
16974;DHT22;8603;46.944;7.412;2023-04-03T03:55:28;5.50;99.90
16974;DHT22;8603;46.944;7.412;2023-04-03T03:57:54;5.50;99.90
16974;DHT22;8603;46.944;7.412;2023-04-03T04:00:19;5.50;99.90
16974;DHT22;8603;46.944;7.412;2023-04-03T04:02:45;5.60;99.90
16974;DHT22;8603;46.944;7.412;2023-04-03T04:05:12;5.50;99.90
16974;DHT22;8603;46.944;7.412;2023-04-03T04:07:37;5.50;99.90
16974;DHT22;8603;46.944;7.412;2023-04-03T04:10:04;5.50;99.90
16974;DHT22;8603;46.944;7.412;2023-04-03T04:12:29;5.50;99.90
16974;DHT22;8603;46.944;7.412;2023-04-03T04:14:55;5.50;99.90
16974;DHT22;8603;46.944;7.412;2023-04-03T04:17:23;5.60;99.90
16974;DHT22;8603;46.944;7.412;2023-04-03T04:19:52;5.60;99.90
16974;DHT22;8603;46.944;7.412;2023-04-03T04:22:18;5.60;99.90
16974;DHT22;8603;46.944;7.412;2023-04-03T04:24:46;5.50;99.90
16974;DHT22;8603;46.944;7.412;2023-04-03T04:27:13;5.60;99.90
16974;DHT22;8603;46.944;7.412;2023-04-03T04:29:44;5.60;99.90
16974;DHT22;8603;46.944;7.412;2023-04-03T04:32:10;5.70;99.90
16974;DHT22;8603;46.944;7.412;2023-04-03T04:34:36;5.70;99.90
16974;DHT22;8603;46.944;7.412;2023-04-03T04:37:02;5.80;99.90
16974;DHT22;8603;46.944;7.412;2023-04-03T04:39:28;5.60;99.90
16974;DHT22;8603;46.944;7.412;2023-04-03T04:41:54;5.60;99.90
16974;DHT22;8603;46.944;7.412;2023-04-03T04:44:20;5.60;99.90
16974;DHT22;8603;46.944;7.412;2023-04-03T04:46:46;5.60;99.90
16974;DHT22;8603;46.944;7.412;2023-04-03T04:49:12;5.40;99.90
16974;DHT22;8603;46.944;7.412;2023-04-03T04:51:37;5.50;99.90
16974;DHT22;8603;46.944;7.412;2023-04-03T04:54:03;5.50;99.90
16974;DHT22;8603;46.944;7.412;2023-04-03T04:56:29;5.40;99.90
16974;DHT22;8603;46.944;7.412;2023-04-03T04:58:57;5.40;99.90
16974;DHT22;8603;46.944;7.412;2023-04-03T05:01:25;5.30;99.90
16974;DHT22;8603;46.944;7.412;2023-04-03T05:03:51;5.40;99.90
16974;DHT22;8603;46.944;7.412;2023-04-03T05:06:17;5.40;99.90
16974;DHT22;8603;46.944;7.412;2023-04-03T05:08:42;5.40;99.90
16974;DHT22;8603;46.944;7.412;2023-04-03T05:11:08;5.40;99.90
16974;DHT22;8603;46.944;7.412;2023-04-03T05:13:34;5.20;99.90
16974;DHT22;8603;46.944;7.412;2023-04-03T05:15:59;5.40;99.90
16974;DHT22;8603;46.944;7.412;2023-04-03T05:18:25;5.40;99.90
16974;DHT22;8603;46.944;7.412;2023-04-03T05:20:51;5.30;99.90
16974;DHT22;8603;46.944;7.412;2023-04-03T05:23:16;5.30;99.90
16974;DHT22;8603;46.944;7.412;2023-04-03T05:25:42;5.20;99.90
16974;DHT22;8603;46.944;7.412;2023-04-03T05:28:13;5.20;99.90
16974;DHT22;8603;46.944;7.412;2023-04-03T05:30:39;5.30;99.90
16974;DHT22;8603;46.944;7.412;2023-04-03T05:33:04;5.20;99.90
16974;DHT22;8603;46.944;7.412;2023-04-03T05:35:31;5.20;99.90
16974;DHT22;8603;46.944;7.412;2023-04-03T05:37:57;5.20;99.90
16974;DHT22;8603;46.944;7.412;2023-04-03T05:40:22;5.10;99.90
16974;DHT22;8603;46.944;7.412;2023-04-03T05:42:48;5.10;99.90
16974;DHT22;8603;46.944;7.412;2023-04-03T05:45:13;5.10;99.90
16974;DHT22;8603;46.944;7.412;2023-04-03T05:47:39;5.10;99.90
16974;DHT22;8603;46.944;7.412;2023-04-03T05:50:05;5.10;99.90
16974;DHT22;8603;46.944;7.412;2023-04-03T05:52:35;5.10;99.90
16974;DHT22;8603;46.944;7.412;2023-04-03T05:55:02;5.10;99.90
16974;DHT22;8603;46.944;7.412;2023-04-03T05:57:27;5.00;99.90
16974;DHT22;8603;46.944;7.412;2023-04-03T05:59:53;5.00;99.90
16974;DHT22;8603;46.944;7.412;2023-04-03T06:02:21;5.00;99.90
16974;DHT22;8603;46.944;7.412;2023-04-03T06:04:46;4.80;99.90
16974;DHT22;8603;46.944;7.412;2023-04-03T06:07:24;4.70;99.90
16974;DHT22;8603;46.944;7.412;2023-04-03T06:09:53;4.60;99.90
16974;DHT22;8603;46.944;7.412;2023-04-03T06:12:19;4.50;99.90
16974;DHT22;8603;46.944;7.412;2023-04-03T06:14:45;4.50;99.90
16974;DHT22;8603;46.944;7.412;2023-04-03T06:17:11;4.40;99.90
16974;DHT22;8603;46.944;7.412;2023-04-03T06:19:37;4.50;99.90
16974;DHT22;8603;46.944;7.412;2023-04-03T06:22:03;4.50;99.90
16974;DHT22;8603;46.944;7.412;2023-04-03T06:24:29;4.60;99.90
16974;DHT22;8603;46.944;7.412;2023-04-03T06:26:56;4.70;99.90
16974;DHT22;8603;46.944;7.412;2023-04-03T06:29:21;4.80;99.90
16974;DHT22;8603;46.944;7.412;2023-04-03T06:31:48;4.80;99.90
16974;DHT22;8603;46.944;7.412;2023-04-03T06:34:14;4.80;99.90
16974;DHT22;8603;46.944;7.412;2023-04-03T06:36:41;4.90;99.90
16974;DHT22;8603;46.944;7.412;2023-04-03T06:39:08;5.00;99.90
16974;DHT22;8603;46.944;7.412;2023-04-03T06:41:34;4.80;99.90
16974;DHT22;8603;46.944;7.412;2023-04-03T06:44:00;5.10;99.90
16974;DHT22;8603;46.944;7.412;2023-04-03T06:46:26;5.30;99.90
16974;DHT22;8603;46.944;7.412;2023-04-03T06:48:52;5.40;99.90
16974;DHT22;8603;46.944;7.412;2023-04-03T06:51:26;5.40;99.90
16974;DHT22;8603;46.944;7.412;2023-04-03T06:53:57;5.30;99.90
16974;DHT22;8603;46.944;7.412;2023-04-03T06:56:23;5.30;99.90
16974;DHT22;8603;46.944;7.412;2023-04-03T06:58:51;5.10;99.90
16974;DHT22;8603;46.944;7.412;2023-04-03T07:01:19;5.10;99.90
16974;DHT22;8603;46.944;7.412;2023-04-03T07:03:48;5.10;99.90
16974;DHT22;8603;46.944;7.412;2023-04-03T07:06:15;5.10;99.90
16974;DHT22;8603;46.944;7.412;2023-04-03T07:08:45;5.20;99.90
16974;DHT22;8603;46.944;7.412;2023-04-03T07:11:13;5.20;99.90
16974;DHT22;8603;46.944;7.412;2023-04-03T07:13:39;5.30;99.90
16974;DHT22;8603;46.944;7.412;2023-04-03T07:16:05;5.10;99.90
16974;DHT22;8603;46.944;7.412;2023-04-03T07:18:32;5.10;99.90
16974;DHT22;8603;46.944;7.412;2023-04-03T07:21:01;5.00;99.90
16974;DHT22;8603;46.944;7.412;2023-04-03T07:23:27;4.90;99.90
16974;DHT22;8603;46.944;7.412;2023-04-03T07:25:55;4.80;99.90
16974;DHT22;8603;46.944;7.412;2023-04-03T07:28:24;4.80;99.90
16974;DHT22;8603;46.944;7.412;2023-04-03T07:30:52;4.70;99.90
16974;DHT22;8603;46.944;7.412;2023-04-03T07:33:19;4.80;99.90
16974;DHT22;8603;46.944;7.412;2023-04-03T07:35:46;4.80;99.90
16974;DHT22;8603;46.944;7.412;2023-04-03T07:38:12;4.80;99.90
16974;DHT22;8603;46.944;7.412;2023-04-03T07:40:38;4.70;99.90
16974;DHT22;8603;46.944;7.412;2023-04-03T07:43:04;4.70;99.90
16974;DHT22;8603;46.944;7.412;2023-04-03T07:45:30;4.60;99.90
16974;DHT22;8603;46.944;7.412;2023-04-03T07:47:56;4.70;99.90
16974;DHT22;8603;46.944;7.412;2023-04-03T07:50:22;4.80;99.90
16974;DHT22;8603;46.944;7.412;2023-04-03T07:52:48;4.90;99.90
16974;DHT22;8603;46.944;7.412;2023-04-03T07:55:27;5.10;99.90
16974;DHT22;8603;46.944;7.412;2023-04-03T07:57:55;5.20;99.90
16974;DHT22;8603;46.944;7.412;2023-04-03T08:00:30;5.50;99.90
16974;DHT22;8603;46.944;7.412;2023-04-03T08:02:56;5.60;99.90
16974;DHT22;8603;46.944;7.412;2023-04-03T08:05:24;5.80;99.90
16974;DHT22;8603;46.944;7.412;2023-04-03T08:07:50;6.10;99.90
16974;DHT22;8603;46.944;7.412;2023-04-03T08:10:16;6.60;99.90
16974;DHT22;8603;46.944;7.412;2023-04-03T08:12:50;7.70;99.90
16974;DHT22;8603;46.944;7.412;2023-04-03T08:15:18;9.10;99.90
16974;DHT22;8603;46.944;7.412;2023-04-03T08:17:54;9.20;99.90
16974;DHT22;8603;46.944;7.412;2023-04-03T08:20:23;9.30;99.90
16974;DHT22;8603;46.944;7.412;2023-04-03T08:22:49;9.00;99.90
16974;DHT22;8603;46.944;7.412;2023-04-03T08:25:14;8.40;99.90
16974;DHT22;8603;46.944;7.412;2023-04-03T08:27:40;8.10;99.90
16974;DHT22;8603;46.944;7.412;2023-04-03T08:30:09;7.50;99.90
16974;DHT22;8603;46.944;7.412;2023-04-03T08:32:38;7.30;99.90
16974;DHT22;8603;46.944;7.412;2023-04-03T08:35:10;7.20;99.90
16974;DHT22;8603;46.944;7.412;2023-04-03T08:37:42;7.20;99.90
16974;DHT22;8603;46.944;7.412;2023-04-03T08:40:13;7.20;99.90
16974;DHT22;8603;46.944;7.412;2023-04-03T08:45:50;7.00;99.90
16974;DHT22;8603;46.944;7.412;2023-04-03T08:48:31;7.00;99.90
16974;DHT22;8603;46.944;7.412;2023-04-03T08:51:03;7.00;99.90
16974;DHT22;8603;46.944;7.412;2023-04-03T08:53:33;6.80;99.90
16974;DHT22;8603;46.944;7.412;2023-04-03T08:56:04;6.80;99.90
16974;DHT22;8603;46.944;7.412;2023-04-03T08:58:55;7.00;99.90
16974;DHT22;8603;46.944;7.412;2023-04-03T09:01:26;6.80;99.90
16974;DHT22;8603;46.944;7.412;2023-04-03T09:03:53;6.70;99.90
16974;DHT22;8603;46.944;7.412;2023-04-03T09:06:32;6.70;99.90
16974;DHT22;8603;46.944;7.412;2023-04-03T09:14:32;6.60;99.90
16974;DHT22;8603;46.944;7.412;2023-04-03T09:17:03;6.60;99.90
16974;DHT22;8603;46.944;7.412;2023-04-03T09:19:41;6.50;99.90
16974;DHT22;8603;46.944;7.412;2023-04-03T09:22:24;6.60;99.90
16974;DHT22;8603;46.944;7.412;2023-04-03T09:24:58;6.70;99.90
16974;DHT22;8603;46.944;7.412;2023-04-03T09:27:25;6.90;99.90
16974;DHT22;8603;46.944;7.412;2023-04-03T09:29:55;6.90;99.90
16974;DHT22;8603;46.944;7.412;2023-04-03T09:32:31;6.90;99.90
16974;DHT22;8603;46.944;7.412;2023-04-03T09:35:13;6.70;99.90
16974;DHT22;8603;46.944;7.412;2023-04-03T09:37:46;6.90;99.90
16974;DHT22;8603;46.944;7.412;2023-04-03T09:40:31;7.10;99.90
16974;DHT22;8603;46.944;7.412;2023-04-03T09:45:41;7.50;99.90
16974;DHT22;8603;46.944;7.412;2023-04-03T09:48:16;7.30;99.90
16974;DHT22;8603;46.944;7.412;2023-04-03T09:50:59;7.10;99.90
16974;DHT22;8603;46.944;7.412;2023-04-03T09:53:43;6.60;99.90
16974;DHT22;8603;46.944;7.412;2023-04-03T09:56:21;6.50;99.90
16974;DHT22;8603;46.944;7.412;2023-04-03T09:58:50;6.30;99.90
16974;DHT22;8603;46.944;7.412;2023-04-03T10:01:31;6.40;99.90
16974;DHT22;8603;46.944;7.412;2023-04-03T10:04:36;6.50;99.90
16974;DHT22;8603;46.944;7.412;2023-04-03T10:07:03;6.40;99.90
16974;DHT22;8603;46.944;7.412;2023-04-03T10:09:31;6.50;99.90
16974;DHT22;8603;46.944;7.412;2023-04-03T10:12:07;6.40;99.90
16974;DHT22;8603;46.944;7.412;2023-04-03T10:15:00;6.20;99.90
16974;DHT22;8603;46.944;7.412;2023-04-03T10:23:24;6.00;99.90
16974;DHT22;8603;46.944;7.412;2023-04-03T10:26:05;6.10;99.90
16974;DHT22;8603;46.944;7.412;2023-04-03T10:28:48;6.20;99.90
16974;DHT22;8603;46.944;7.412;2023-04-03T10:32:22;6.40;99.90
16974;DHT22;8603;46.944;7.412;2023-04-03T10:34:30;6.70;99.90
16974;DHT22;8603;46.944;7.412;2023-04-03T10:37:35;6.90;99.90
16974;DHT22;8603;46.944;7.412;2023-04-03T10:46:01;7.00;99.90
16974;DHT22;8603;46.944;7.412;2023-04-03T10:54:38;7.40;99.90
16974;DHT22;8603;46.944;7.412;2023-04-03T10:57:09;7.40;99.90
16974;DHT22;8603;46.944;7.412;2023-04-03T10:59:45;7.50;99.90
16974;DHT22;8603;46.944;7.412;2023-04-03T11:02:27;7.50;99.90
16974;DHT22;8603;46.944;7.412;2023-04-03T11:05:01;7.60;99.90
16974;DHT22;8603;46.944;7.412;2023-04-03T11:07:32;7.60;99.90
16974;DHT22;8603;46.944;7.412;2023-04-03T11:10:26;7.30;99.90
16974;DHT22;8603;46.944;7.412;2023-04-03T11:13:02;7.30;99.90
16974;DHT22;8603;46.944;7.412;2023-04-03T11:15:32;7.20;99.90
16974;DHT22;8603;46.944;7.412;2023-04-03T11:18:09;6.90;99.90
16974;DHT22;8603;46.944;7.412;2023-04-03T11:20:42;6.90;99.90
16974;DHT22;8603;46.944;7.412;2023-04-03T11:25:42;7.20;99.90
16974;DHT22;8603;46.944;7.412;2023-04-03T11:28:14;7.30;99.90
16974;DHT22;8603;46.944;7.412;2023-04-03T11:33:44;7.10;99.90
16974;DHT22;8603;46.944;7.412;2023-04-03T11:36:28;7.10;99.90
16974;DHT22;8603;46.944;7.412;2023-04-03T11:38:58;7.00;99.90
16974;DHT22;8603;46.944;7.412;2023-04-03T11:41:33;6.90;99.90
16974;DHT22;8603;46.944;7.412;2023-04-03T11:44:27;6.80;99.90
16974;DHT22;8603;46.944;7.412;2023-04-03T11:47:02;6.50;99.90
16974;DHT22;8603;46.944;7.412;2023-04-03T11:49:58;6.40;99.90
16974;DHT22;8603;46.944;7.412;2023-04-03T11:58:18;6.20;99.90
16974;DHT22;8603;46.944;7.412;2023-04-03T12:00:49;6.40;99.90
16974;DHT22;8603;46.944;7.412;2023-04-03T12:08:46;6.90;99.90
16974;DHT22;8603;46.944;7.412;2023-04-03T12:19:39;6.80;99.90
16974;DHT22;8603;46.944;7.412;2023-04-03T12:22:15;6.70;99.90
16974;DHT22;8603;46.944;7.412;2023-04-03T12:24:52;6.40;99.90
16974;DHT22;8603;46.944;7.412;2023-04-03T12:27:33;6.50;99.90
16974;DHT22;8603;46.944;7.412;2023-04-03T12:30:13;6.50;99.90
16974;DHT22;8603;46.944;7.412;2023-04-03T12:32:42;6.60;99.90
16974;DHT22;8603;46.944;7.412;2023-04-03T12:35:28;6.40;99.90
16974;DHT22;8603;46.944;7.412;2023-04-03T12:41:19;6.40;99.90
16974;DHT22;8603;46.944;7.412;2023-04-03T12:43:55;6.50;99.90
16974;DHT22;8603;46.944;7.412;2023-04-03T12:46:34;6.30;99.90
16974;DHT22;8603;46.944;7.412;2023-04-03T12:49:01;6.40;99.90
16974;DHT22;8603;46.944;7.412;2023-04-03T12:51:40;6.50;99.90
16974;DHT22;8603;46.944;7.412;2023-04-03T12:54:20;6.60;99.90
16974;DHT22;8603;46.944;7.412;2023-04-03T12:56:49;6.50;99.90
16974;DHT22;8603;46.944;7.412;2023-04-03T12:59:25;6.50;99.90
16974;DHT22;8603;46.944;7.412;2023-04-03T13:01:59;6.50;99.90
16974;DHT22;8603;46.944;7.412;2023-04-03T13:04:27;6.60;99.90
16974;DHT22;8603;46.944;7.412;2023-04-03T13:06:56;6.80;99.90
16974;DHT22;8603;46.944;7.412;2023-04-03T13:09:28;7.00;99.90
16974;DHT22;8603;46.944;7.412;2023-04-03T13:12:13;6.90;99.90
16974;DHT22;8603;46.944;7.412;2023-04-03T13:14:39;6.80;99.90
16974;DHT22;8603;46.944;7.412;2023-04-03T13:17:18;6.60;99.90
16974;DHT22;8603;46.944;7.412;2023-04-03T13:19:45;6.60;99.90
16974;DHT22;8603;46.944;7.412;2023-04-03T13:22:27;6.70;99.90
16974;DHT22;8603;46.944;7.412;2023-04-03T13:24:55;6.70;99.90
16974;DHT22;8603;46.944;7.412;2023-04-03T13:27:22;7.00;99.90
16974;DHT22;8603;46.944;7.412;2023-04-03T13:29:57;6.80;99.90
16974;DHT22;8603;46.944;7.412;2023-04-03T13:32:26;7.00;99.90
16974;DHT22;8603;46.944;7.412;2023-04-03T13:34:52;6.90;99.90
16974;DHT22;8603;46.944;7.412;2023-04-03T13:37:29;6.90;99.90
16974;DHT22;8603;46.944;7.412;2023-04-03T13:40:12;6.90;99.90
16974;DHT22;8603;46.944;7.412;2023-04-03T13:42:40;7.10;99.90
16974;DHT22;8603;46.944;7.412;2023-04-03T13:45:20;7.10;99.90
16974;DHT22;8603;46.944;7.412;2023-04-03T13:47:47;7.10;99.90
16974;DHT22;8603;46.944;7.412;2023-04-03T13:50:22;7.10;99.90
16974;DHT22;8603;46.944;7.412;2023-04-03T13:53:03;7.00;99.90
16974;DHT22;8603;46.944;7.412;2023-04-03T13:55:37;7.10;99.90
16974;DHT22;8603;46.944;7.412;2023-04-03T13:58:22;7.20;99.90
16974;DHT22;8603;46.944;7.412;2023-04-03T14:00:52;7.10;99.90
16974;DHT22;8603;46.944;7.412;2023-04-03T14:03:26;7.10;99.90
16974;DHT22;8603;46.944;7.412;2023-04-03T14:05:54;7.10;99.90
16974;DHT22;8603;46.944;7.412;2023-04-03T14:08:20;7.20;99.90
16974;DHT22;8603;46.944;7.412;2023-04-03T14:10:46;7.20;99.90
16974;DHT22;8603;46.944;7.412;2023-04-03T14:13:17;7.20;99.90
16974;DHT22;8603;46.944;7.412;2023-04-03T14:15:44;7.20;99.90
16974;DHT22;8603;46.944;7.412;2023-04-03T14:18:12;7.20;99.90
16974;DHT22;8603;46.944;7.412;2023-04-03T14:20:39;7.30;99.90
16974;DHT22;8603;46.944;7.412;2023-04-03T14:23:05;7.30;99.90
16974;DHT22;8603;46.944;7.412;2023-04-03T14:25:32;7.30;99.90
16974;DHT22;8603;46.944;7.412;2023-04-03T14:27:58;7.20;99.90
16974;DHT22;8603;46.944;7.412;2023-04-03T14:30:32;7.10;99.90
16974;DHT22;8603;46.944;7.412;2023-04-03T14:32:59;7.10;99.90
16974;DHT22;8603;46.944;7.412;2023-04-03T14:35:26;7.00;99.90
16974;DHT22;8603;46.944;7.412;2023-04-03T14:37:55;7.00;99.90
16974;DHT22;8603;46.944;7.412;2023-04-03T14:40:25;6.80;99.90
16974;DHT22;8603;46.944;7.412;2023-04-03T14:42:51;6.60;99.90
16974;DHT22;8603;46.944;7.412;2023-04-03T14:45:20;6.70;99.90
16974;DHT22;8603;46.944;7.412;2023-04-03T14:47:49;6.50;99.90
16974;DHT22;8603;46.944;7.412;2023-04-03T14:50:18;6.50;99.90
16974;DHT22;8603;46.944;7.412;2023-04-03T14:52:44;6.50;99.90
16974;DHT22;8603;46.944;7.412;2023-04-03T14:55:12;6.70;99.90
16974;DHT22;8603;46.944;7.412;2023-04-03T14:57:40;6.60;99.90
16974;DHT22;8603;46.944;7.412;2023-04-03T15:00:11;6.60;99.90
16974;DHT22;8603;46.944;7.412;2023-04-03T15:02:38;6.60;99.90
16974;DHT22;8603;46.944;7.412;2023-04-03T15:05:06;6.50;99.90
16974;DHT22;8603;46.944;7.412;2023-04-03T15:07:38;6.60;99.90
16974;DHT22;8603;46.944;7.412;2023-04-03T15:12:41;6.50;99.90
16974;DHT22;8603;46.944;7.412;2023-04-03T15:15:07;6.50;99.90
16974;DHT22;8603;46.944;7.412;2023-04-03T15:17:34;6.50;99.90
16974;DHT22;8603;46.944;7.412;2023-04-03T15:20:01;6.60;99.90
16974;DHT22;8603;46.944;7.412;2023-04-03T15:22:27;6.70;99.90
16974;DHT22;8603;46.944;7.412;2023-04-03T15:24:53;6.70;99.90
16974;DHT22;8603;46.944;7.412;2023-04-03T15:27:19;6.70;99.90
16974;DHT22;8603;46.944;7.412;2023-04-03T15:29:45;6.60;99.90
16974;DHT22;8603;46.944;7.412;2023-04-03T15:32:11;6.70;99.90
16974;DHT22;8603;46.944;7.412;2023-04-03T15:34:37;6.80;99.90
16974;DHT22;8603;46.944;7.412;2023-04-03T15:37:03;6.70;99.90
16974;DHT22;8603;46.944;7.412;2023-04-03T15:39:28;6.70;99.90
16974;DHT22;8603;46.944;7.412;2023-04-03T15:41:54;6.60;99.90
16974;DHT22;8603;46.944;7.412;2023-04-03T15:44:21;6.70;99.90
16974;DHT22;8603;46.944;7.412;2023-04-03T15:46:47;6.80;99.90
16974;DHT22;8603;46.944;7.412;2023-04-03T15:49:17;6.70;99.90
16974;DHT22;8603;46.944;7.412;2023-04-03T15:51:43;6.60;99.90
16974;DHT22;8603;46.944;7.412;2023-04-03T15:54:09;6.60;99.90
16974;DHT22;8603;46.944;7.412;2023-04-03T15:56:34;6.60;99.90
16974;DHT22;8603;46.944;7.412;2023-04-03T15:59:00;6.60;99.90
16974;DHT22;8603;46.944;7.412;2023-04-03T16:01:26;6.60;99.90
16974;DHT22;8603;46.944;7.412;2023-04-03T16:03:51;6.60;99.90
16974;DHT22;8603;46.944;7.412;2023-04-03T16:06:18;6.60;99.90
16974;DHT22;8603;46.944;7.412;2023-04-03T16:08:44;6.60;99.90
16974;DHT22;8603;46.944;7.412;2023-04-03T16:11:11;6.60;99.90
16974;DHT22;8603;46.944;7.412;2023-04-03T16:13:36;6.60;99.90
16974;DHT22;8603;46.944;7.412;2023-04-03T16:16:03;6.50;99.90
16974;DHT22;8603;46.944;7.412;2023-04-03T16:18:29;6.40;99.90
16974;DHT22;8603;46.944;7.412;2023-04-03T16:20:55;6.40;99.90
16974;DHT22;8603;46.944;7.412;2023-04-03T16:23:21;6.40;99.90
16974;DHT22;8603;46.944;7.412;2023-04-03T16:25:47;6.30;99.90
16974;DHT22;8603;46.944;7.412;2023-04-03T16:28:13;6.30;99.90
16974;DHT22;8603;46.944;7.412;2023-04-03T16:30:43;6.30;99.90
16974;DHT22;8603;46.944;7.412;2023-04-03T16:33:13;6.40;99.90
16974;DHT22;8603;46.944;7.412;2023-04-03T16:35:39;6.30;99.90
16974;DHT22;8603;46.944;7.412;2023-04-03T16:38:07;6.20;99.90
16974;DHT22;8603;46.944;7.412;2023-04-03T16:40:33;6.20;99.90
16974;DHT22;8603;46.944;7.412;2023-04-03T16:43:01;6.10;99.90
16974;DHT22;8603;46.944;7.412;2023-04-03T16:45:27;6.10;99.90
16974;DHT22;8603;46.944;7.412;2023-04-03T16:47:52;6.00;99.90
16974;DHT22;8603;46.944;7.412;2023-04-03T16:50:18;6.00;99.90
16974;DHT22;8603;46.944;7.412;2023-04-03T16:52:45;6.10;99.90
16974;DHT22;8603;46.944;7.412;2023-04-03T16:55:11;6.00;99.90
16974;DHT22;8603;46.944;7.412;2023-04-03T16:57:37;5.90;99.90
16974;DHT22;8603;46.944;7.412;2023-04-03T17:00:03;5.90;99.90
16974;DHT22;8603;46.944;7.412;2023-04-03T17:02:29;5.80;99.90
16974;DHT22;8603;46.944;7.412;2023-04-03T17:04:55;5.80;99.90
16974;DHT22;8603;46.944;7.412;2023-04-03T17:07:23;5.70;99.90
16974;DHT22;8603;46.944;7.412;2023-04-03T17:09:49;5.70;99.90
16974;DHT22;8603;46.944;7.412;2023-04-03T17:12:16;5.60;99.90
16974;DHT22;8603;46.944;7.412;2023-04-03T17:14:42;5.60;99.90
16974;DHT22;8603;46.944;7.412;2023-04-03T17:17:08;5.60;99.90
16974;DHT22;8603;46.944;7.412;2023-04-03T17:19:34;5.50;99.90
16974;DHT22;8603;46.944;7.412;2023-04-03T17:22:01;5.50;99.90
16974;DHT22;8603;46.944;7.412;2023-04-03T17:24:26;5.60;99.90
16974;DHT22;8603;46.944;7.412;2023-04-03T17:26:52;5.40;99.90
16974;DHT22;8603;46.944;7.412;2023-04-03T17:29:18;5.40;99.90
16974;DHT22;8603;46.944;7.412;2023-04-03T17:31:43;5.40;99.90
16974;DHT22;8603;46.944;7.412;2023-04-03T17:34:09;5.40;99.90
16974;DHT22;8603;46.944;7.412;2023-04-03T17:36:38;5.40;99.90